createdAt,value
2018-06-22T00:02:25.337Z,51.80
2018-06-22T00:04:54.186Z,52.10
2018-06-22T00:07:23.003Z,52.10
2018-06-22T00:09:52.043Z,52.00
2018-06-22T00:12:20.840Z,52.40
2018-06-22T00:14:49.612Z,52.70
2018-06-22T00:17:18.524Z,52.60
2018-06-22T00:19:47.416Z,52.60
2018-06-22T00:22:16.214Z,53.10
2018-06-22T00:24:45.056Z,53.20
2018-06-22T00:27:13.866Z,53.40
2018-06-22T00:29:42.770Z,53.70
2018-06-22T00:32:11.462Z,53.60
2018-06-22T00:34:40.308Z,54.10
2018-06-22T00:37:09.154Z,54.80
2018-06-22T00:39:37.948Z,54.20
2018-06-22T00:42:06.812Z,54.40
2018-06-22T00:44:35.550Z,54.40
2018-06-22T00:47:04.357Z,54.60
2018-06-22T00:49:33.196Z,54.60
2018-06-22T00:52:02.099Z,54.70
2018-06-22T00:54:30.864Z,54.90
2018-06-22T00:56:59.786Z,54.60
2018-06-22T00:59:28.532Z,55.30
2018-06-22T01:01:57.317Z,54.90
2018-06-22T01:04:26.346Z,54.90
2018-06-22T01:06:55.158Z,55.70
2018-06-22T01:09:23.974Z,56.00
2018-06-22T01:11:52.706Z,55.70
2018-06-22T01:14:21.573Z,55.70
2018-06-22T01:16:50.374Z,56.30
2018-06-22T01:19:19.175Z,56.20
2018-06-22T01:21:48.196Z,56.40
2018-06-22T01:24:16.985Z,57.00
2018-06-22T01:26:45.953Z,57.10
2018-06-22T01:29:19.978Z,57.10
2018-06-22T01:31:48.850Z,57.60
2018-06-22T01:34:17.747Z,57.60
2018-06-22T01:36:46.548Z,57.80
2018-06-22T01:39:15.294Z,57.90
2018-06-22T01:41:44.087Z,58.70
2018-06-22T01:44:12.930Z,58.60
2018-06-22T01:46:41.983Z,58.60
2018-06-22T01:49:10.861Z,58.90
2018-06-22T01:51:39.658Z,59.00
2018-06-22T01:54:08.500Z,59.40
2018-06-22T01:56:37.390Z,59.20
2018-06-22T01:59:06.129Z,59.10
2018-06-22T02:01:34.763Z,59.60
2018-06-22T02:04:03.260Z,59.40
2018-06-22T02:06:31.830Z,59.90
2018-06-22T02:09:00.354Z,60.70
2018-06-22T02:11:28.877Z,60.30
2018-06-22T02:13:57.517Z,60.70
2018-06-22T02:16:26.003Z,61.00
2018-06-22T02:18:54.667Z,60.80
2018-06-22T02:21:23.186Z,61.30
2018-06-22T02:23:51.755Z,61.60
2018-06-22T02:26:20.261Z,61.70
2018-06-22T02:28:48.760Z,61.80
2018-06-22T02:31:17.369Z,62.20
2018-06-22T02:33:46.665Z,62.30
2018-06-22T02:36:15.568Z,62.80
2018-06-22T02:38:44.543Z,63.20
2018-06-22T02:41:13.321Z,63.30
2018-06-22T02:43:42.207Z,63.70
2018-06-22T02:46:11.039Z,64.10
2018-06-22T02:48:39.958Z,64.10
2018-06-22T02:51:08.841Z,64.90
2018-06-22T02:53:37.875Z,64.80
2018-06-22T02:56:06.722Z,65.20
2018-06-22T02:58:35.713Z,65.50
2018-06-22T03:01:04.748Z,66.00
2018-06-22T03:03:33.583Z,66.50
2018-06-22T03:06:02.561Z,67.10
2018-06-22T03:11:05.632Z,67.40
2018-06-22T03:13:34.657Z,68.20
2018-06-22T03:16:03.526Z,67.60
2018-06-22T03:18:32.317Z,68.30
2018-06-22T03:21:01.274Z,68.50
2018-06-22T03:23:30.107Z,68.50
2018-06-22T03:25:58.963Z,69.10
2018-06-22T03:28:27.654Z,69.10
2018-06-22T03:30:56.767Z,69.10
2018-06-22T03:33:25.551Z,69.40
2018-06-22T03:35:54.339Z,69.10
2018-06-22T03:38:23.211Z,69.70
2018-06-22T03:40:52.035Z,70.00
2018-06-22T03:43:20.922Z,70.10
2018-06-22T03:45:49.843Z,70.80
2018-06-22T03:48:18.696Z,70.20
2018-06-22T03:50:54.402Z,70.50
2018-06-22T03:53:23.267Z,70.70
2018-06-22T03:55:52.073Z,70.70
2018-06-22T03:58:20.898Z,70.80
2018-06-22T04:00:49.894Z,70.80
2018-06-22T04:03:18.905Z,70.80
2018-06-22T04:05:47.803Z,71.20
2018-06-22T04:08:16.648Z,71.30
2018-06-22T04:10:45.423Z,70.70
2018-06-22T04:13:14.139Z,70.90
2018-06-22T04:15:42.958Z,70.50
2018-06-22T04:18:11.684Z,70.30
2018-06-22T04:20:40.653Z,70.90
2018-06-22T04:23:09.509Z,70.10
2018-06-22T04:25:38.297Z,70.00
2018-06-22T04:28:07.102Z,70.60
2018-06-22T04:30:36.110Z,70.50
2018-06-22T04:33:04.995Z,70.30
2018-06-22T04:38:02.345Z,69.40
2018-06-22T04:40:31.155Z,69.80
2018-06-22T04:42:59.951Z,70.30
2018-06-22T04:45:28.787Z,70.40
2018-06-22T04:47:57.604Z,70.30
2018-06-22T04:50:26.663Z,70.00
2018-06-22T04:52:55.399Z,67.00
2018-06-22T04:55:24.194Z,63.50
2018-06-22T04:57:52.955Z,59.90
2018-06-22T05:00:21.851Z,58.50
2018-06-22T05:03:01.512Z,57.90
2018-06-22T05:05:30.406Z,57.50
2018-06-22T05:07:59.269Z,57.70
2018-06-22T05:10:28.099Z,57.10
2018-06-22T05:12:56.919Z,56.30
2018-06-22T05:15:25.763Z,54.70
2018-06-22T05:17:54.531Z,54.00
2018-06-22T05:20:23.401Z,52.40
2018-06-22T05:22:52.357Z,52.70
2018-06-22T05:25:21.279Z,50.30
2018-06-22T05:27:50.251Z,49.30
2018-06-22T05:30:19.468Z,49.40
2018-06-22T05:32:48.361Z,48.30
2018-06-22T05:35:17.201Z,48.20
2018-06-22T05:37:46.001Z,48.60
2018-06-22T05:40:14.917Z,48.10
2018-06-22T05:42:43.754Z,47.10
2018-06-22T05:45:12.779Z,44.80
2018-06-22T05:47:41.593Z,44.20
2018-06-22T05:50:10.373Z,43.70
2018-06-22T05:52:39.193Z,44.00
2018-06-22T05:55:08.078Z,42.30
2018-06-22T05:57:37.137Z,42.00
2018-06-22T06:00:10.171Z,42.80
2018-06-22T06:02:39.172Z,42.30
2018-06-22T06:05:08.121Z,41.20
2018-06-22T06:07:37.860Z,40.50
2018-06-22T06:10:10.247Z,38.80
2018-06-22T06:12:42.301Z,38.80
2018-06-22T06:15:11.125Z,38.90
2018-06-22T06:17:45.995Z,39.80
2018-06-22T06:20:14.797Z,42.30
2018-06-22T06:22:43.819Z,42.60
2018-06-22T06:25:12.587Z,41.00
2018-06-22T06:27:51.469Z,42.10
2018-06-22T06:30:20.433Z,40.80
2018-06-22T06:32:49.363Z,41.00
2018-06-22T06:35:18.297Z,41.30
2018-06-22T06:37:52.487Z,40.50
2018-06-22T06:40:24.635Z,40.70
2018-06-22T06:42:53.510Z,40.50
2018-06-22T06:45:22.323Z,41.50
2018-06-22T06:47:51.208Z,38.30
2018-06-22T06:50:20.076Z,37.40
2018-06-22T06:53:00.833Z,37.50
2018-06-22T06:55:29.969Z,37.00
2018-06-22T06:57:58.740Z,38.20
2018-06-22T07:00:27.494Z,39.00
2018-06-22T07:02:56.254Z,40.60
2018-06-22T07:05:25.174Z,43.20
2018-06-22T07:07:54.410Z,46.10
2018-06-22T07:10:33.311Z,48.00
2018-06-22T07:13:02.661Z,48.50
2018-06-22T07:15:35.688Z,49.30
2018-06-22T07:18:04.560Z,48.40
2018-06-22T07:20:33.702Z,48.70
2018-06-22T07:23:02.694Z,50.00
2018-06-22T07:25:31.674Z,50.50
2018-06-22T07:28:00.712Z,50.30
2018-06-22T07:30:29.623Z,50.10
2018-06-22T07:32:58.443Z,51.40
2018-06-22T07:35:27.206Z,51.80
2018-06-22T07:37:56.156Z,52.10
2018-06-22T07:40:25.001Z,53.20
2018-06-22T07:42:53.944Z,53.10
2018-06-22T07:45:22.730Z,52.60
2018-06-22T07:47:51.680Z,51.00
2018-06-22T07:50:20.470Z,51.80
2018-06-22T07:52:49.332Z,52.10
2018-06-22T07:55:18.195Z,52.10
2018-06-22T07:57:46.949Z,50.30
2018-06-22T08:00:15.810Z,51.10
2018-06-22T08:02:44.962Z,51.60
2018-06-22T08:05:13.714Z,52.20
2018-06-22T08:07:42.534Z,52.00
2018-06-22T08:12:39.816Z,52.90
2018-06-22T08:15:08.580Z,52.70
2018-06-22T08:20:05.986Z,50.70
2018-06-22T08:22:34.819Z,51.60
2018-06-22T08:25:03.684Z,52.10
2018-06-22T08:27:32.562Z,50.90
2018-06-22T08:30:01.432Z,50.90
2018-06-22T08:32:30.308Z,51.00
2018-06-22T08:34:59.285Z,51.20
2018-06-22T08:37:28.090Z,50.50
2018-06-22T08:42:25.262Z,50.30
2018-06-22T08:44:54.172Z,51.90
2018-06-22T08:47:22.926Z,51.90
2018-06-22T08:49:51.852Z,50.40
2018-06-22T08:52:21.049Z,50.20
2018-06-22T08:54:49.808Z,51.50
2018-06-22T08:57:18.687Z,52.30
2018-06-22T08:59:47.492Z,52.60
2018-06-22T09:02:16.314Z,52.90
2018-06-22T09:04:45.193Z,52.50
2018-06-22T09:07:14.502Z,51.60
2018-06-22T09:09:43.295Z,51.20
2018-06-22T09:12:12.068Z,51.90
2018-06-22T09:14:40.864Z,52.30
2018-06-22T09:17:09.734Z,53.50
2018-06-22T09:19:38.580Z,53.10
2018-06-22T09:22:07.680Z,51.90
2018-06-22T09:24:36.554Z,52.90
2018-06-22T09:27:05.324Z,52.90
2018-06-22T09:29:34.044Z,53.00
2018-06-22T09:32:02.894Z,53.10
2018-06-22T09:34:31.748Z,52.50
2018-06-22T09:39:29.078Z,53.90
2018-06-22T09:41:57.922Z,55.40
2018-06-22T09:44:37.629Z,59.20
2018-06-22T09:47:07.035Z,61.20
2018-06-22T09:49:35.922Z,63.00
2018-06-22T09:52:04.708Z,66.30
2018-06-22T09:54:33.624Z,67.30
2018-06-22T09:57:02.422Z,69.10
2018-06-22T09:59:31.266Z,70.30
2018-06-22T10:02:00.027Z,70.70
2018-06-22T10:04:28.837Z,70.80
2018-06-22T10:06:57.674Z,71.90
2018-06-22T10:09:27.056Z,72.20
2018-06-22T10:11:55.889Z,70.40
2018-06-22T10:14:24.672Z,70.90
2018-06-22T10:16:53.407Z,71.00
2018-06-22T10:19:22.268Z,68.70
2018-06-22T10:21:55.370Z,68.00
2018-06-22T10:24:24.187Z,65.20
2018-06-22T10:26:52.946Z,62.00
2018-06-22T10:29:21.962Z,61.80
2018-06-22T10:31:50.792Z,59.00
2018-06-22T10:34:19.664Z,60.00
2018-06-22T10:36:48.740Z,58.40
2018-06-22T10:39:17.729Z,58.90
2018-06-22T10:41:46.559Z,59.80
2018-06-22T10:44:15.504Z,60.30
2018-06-22T10:46:44.339Z,60.20
2018-06-22T10:51:41.793Z,58.90
2018-06-22T10:54:10.566Z,58.40
2018-06-22T10:56:39.791Z,59.00
2018-06-22T11:01:37.496Z,56.30
2018-06-22T11:04:06.920Z,54.70
2018-06-22T11:06:35.760Z,53.60
2018-06-22T11:09:06.620Z,54.30
2018-06-22T11:11:35.696Z,53.80
2018-06-22T11:14:05.076Z,53.80
2018-06-22T11:16:33.848Z,53.60
2018-06-22T11:19:03.150Z,53.80
2018-06-22T11:21:32.020Z,53.60
2018-06-22T11:24:00.953Z,53.70
2018-06-22T11:26:29.754Z,54.10
2018-06-22T11:28:58.674Z,54.30
2018-06-22T11:31:27.382Z,53.80
2018-06-22T11:33:59.707Z,54.50
2018-06-22T11:36:28.589Z,54.30
2018-06-22T11:38:57.506Z,54.30
2018-06-22T11:41:26.347Z,55.20
2018-06-22T11:43:55.151Z,57.70
2018-06-22T11:46:24.021Z,56.60
2018-06-22T11:48:52.854Z,55.70
2018-06-22T11:51:21.929Z,56.20
2018-06-22T11:56:25.874Z,52.80
2018-06-22T11:58:54.795Z,52.80
2018-06-22T12:01:23.767Z,50.90
2018-06-22T12:03:52.637Z,48.70
2018-06-22T12:06:21.525Z,45.50
2018-06-22T12:08:50.299Z,44.50
2018-06-22T12:11:39.417Z,44.10
2018-06-22T12:14:08.223Z,44.10
2018-06-22T12:16:37.327Z,43.80
2018-06-22T12:19:06.457Z,44.20
2018-06-22T12:21:35.213Z,41.90
2018-06-22T12:24:03.997Z,40.10
2018-06-22T12:26:32.955Z,39.60
2018-06-22T12:29:01.838Z,41.00
2018-06-22T12:31:30.668Z,41.60
2018-06-22T12:33:59.700Z,41.40
2018-06-22T12:36:28.533Z,45.10
2018-06-22T12:38:57.329Z,50.80
2018-06-22T12:41:26.341Z,52.70
2018-06-22T12:43:55.234Z,53.80
2018-06-22T12:46:24.123Z,53.80
2018-06-22T12:48:53.261Z,55.90
2018-06-22T12:51:21.985Z,53.20
2018-06-22T12:53:50.943Z,50.30
2018-06-22T12:56:19.736Z,47.00
2018-06-22T12:58:48.585Z,44.20
2018-06-22T13:01:17.403Z,44.40
2018-06-22T13:03:46.505Z,45.10
2018-06-22T13:06:15.432Z,47.70
2018-06-22T13:08:44.452Z,49.70
2018-06-22T13:11:13.471Z,51.30
2018-06-22T13:13:45.833Z,51.90
2018-06-22T13:16:14.791Z,52.60
2018-06-22T13:18:43.618Z,52.90
2018-06-22T13:21:12.451Z,52.50
2018-06-22T13:23:41.517Z,52.90
2018-06-22T13:26:10.288Z,52.80
2018-06-22T13:28:39.156Z,52.00
2018-06-22T13:31:08.144Z,52.20
2018-06-22T13:33:36.967Z,52.00
2018-06-22T13:36:05.787Z,52.00
2018-06-22T13:38:34.677Z,49.90
2018-06-22T13:43:32.234Z,48.30
2018-06-22T13:46:03.275Z,48.20
2018-06-22T13:48:31.955Z,48.80
2018-06-22T13:51:01.217Z,47.80
2018-06-22T13:53:30.071Z,47.90
2018-06-22T13:55:58.898Z,47.30
2018-06-22T13:58:27.821Z,47.50
2018-06-22T14:00:56.648Z,47.90
2018-06-22T14:03:25.447Z,49.50
2018-06-22T14:05:59.722Z,51.40
2018-06-22T14:08:28.487Z,52.80
2018-06-22T14:10:57.405Z,58.90
2018-06-22T14:13:36.687Z,62.90
2018-06-22T14:16:05.997Z,66.30
2018-06-22T14:18:34.769Z,67.20
2018-06-22T14:21:03.597Z,66.50
2018-06-22T14:23:32.428Z,68.40
2018-06-22T14:26:01.301Z,62.90
2018-06-22T14:28:30.042Z,59.90
2018-06-22T14:30:58.921Z,58.60
2018-06-22T14:33:27.769Z,57.70
2018-06-22T14:35:56.703Z,55.10
2018-06-22T14:38:25.525Z,54.50
2018-06-22T14:40:54.377Z,52.70
2018-06-22T14:43:23.166Z,50.00
2018-06-22T14:45:59.482Z,50.50
2018-06-22T14:48:28.344Z,52.10
2018-06-22T14:50:57.238Z,50.50
2018-06-22T14:53:31.369Z,50.60
2018-06-22T14:56:05.439Z,52.10
2018-06-22T14:58:39.578Z,54.40
2018-06-22T15:01:17.138Z,56.30
2018-06-22T15:03:51.299Z,68.70
2018-06-22T15:07:26.122Z,71.20
2018-06-22T15:09:55.113Z,76.30
2018-06-22T15:12:24.003Z,79.70
2018-06-22T15:14:52.823Z,80.10
2018-06-22T15:17:21.689Z,81.80
2018-06-22T15:19:50.685Z,78.50
2018-06-22T15:22:19.549Z,78.30
2018-06-22T15:24:48.705Z,76.10
2018-06-22T15:27:17.648Z,74.80
2018-06-22T15:29:46.497Z,70.60
2018-06-22T15:32:15.294Z,70.70
2018-06-22T15:34:49.205Z,68.20
2018-06-22T15:37:23.251Z,67.90
2018-06-22T15:39:57.430Z,67.60
2018-06-22T15:42:31.330Z,67.90
2018-06-22T15:45:05.457Z,65.40
2018-06-22T15:48:43.276Z,64.30
2018-06-22T15:51:17.187Z,62.20
2018-06-22T15:53:58.632Z,60.50
2018-06-22T15:56:27.757Z,60.70
2018-06-22T15:58:56.830Z,60.30
2018-06-22T16:01:26.084Z,59.40
2018-06-22T16:03:58.212Z,59.40
2018-06-22T16:09:25.856Z,59.70
2018-06-22T16:11:58.830Z,59.40
2018-06-22T16:14:33.538Z,60.20
2018-06-22T16:17:07.657Z,57.70
2018-06-22T16:19:41.767Z,58.30
2018-06-22T16:22:15.772Z,56.80
2018-06-22T16:24:50.095Z,57.80
2018-06-22T16:27:19.124Z,56.00
2018-06-22T16:29:47.978Z,56.10
2018-06-22T16:32:16.964Z,56.20
2018-06-22T16:34:45.750Z,56.20
2018-06-22T16:37:15.046Z,53.60
2018-06-22T16:39:43.791Z,53.70
2018-06-22T16:42:12.670Z,52.40
2018-06-22T16:44:41.489Z,54.10
2018-06-22T16:47:10.376Z,53.60
2018-06-22T16:49:39.183Z,53.00
2018-06-22T16:52:08.080Z,52.30
2018-06-22T16:54:37.021Z,52.20
2018-06-22T16:57:06.189Z,53.30
2018-06-22T16:59:35.242Z,54.00
2018-06-22T17:02:04.153Z,53.40
2018-06-22T17:04:33.008Z,53.90
2018-06-22T17:09:40.961Z,54.70
2018-06-22T17:12:14.959Z,55.50
2018-06-22T17:14:49.345Z,55.30
2018-06-22T17:17:35.636Z,54.80
2018-06-22T17:20:04.508Z,56.20
2018-06-22T17:22:33.315Z,55.60
2018-06-22T17:25:02.384Z,56.00
2018-06-22T17:27:31.263Z,56.20
2018-06-22T17:30:00.269Z,57.40
2018-06-22T17:32:29.188Z,56.60
2018-06-22T17:34:57.933Z,56.30
2018-06-22T17:37:26.829Z,56.20
2018-06-22T17:39:56.012Z,56.50
2018-06-22T17:42:24.829Z,56.70
2018-06-22T17:44:53.675Z,57.00
2018-06-22T17:47:22.606Z,56.80
2018-06-22T17:49:51.507Z,56.20
2018-06-22T17:52:20.417Z,56.80
2018-06-22T17:55:06.821Z,57.00
2018-06-22T17:57:35.736Z,56.30
2018-06-22T18:00:10.269Z,56.00
2018-06-22T18:02:44.244Z,56.00
2018-06-22T18:05:18.210Z,56.90
2018-06-22T18:07:48.847Z,56.40
2018-06-22T18:10:23.071Z,57.00
2018-06-22T18:12:54.796Z,56.50
2018-06-22T18:15:23.750Z,56.00
2018-06-22T18:17:52.702Z,57.20
2018-06-22T18:20:21.644Z,56.50
2018-06-22T18:22:50.598Z,56.20
2018-06-22T18:25:19.305Z,56.80
2018-06-22T18:27:48.786Z,57.40
2018-06-22T18:30:17.767Z,57.70
2018-06-22T18:32:52.450Z,58.40
2018-06-22T18:35:21.420Z,57.40
2018-06-22T18:37:50.426Z,57.90
2018-06-22T18:40:19.294Z,57.50
2018-06-22T18:42:48.032Z,57.60
2018-06-22T18:45:17.192Z,58.30
2018-06-22T18:47:46.346Z,58.30
2018-06-22T18:50:15.156Z,58.60
2018-06-22T18:52:49.404Z,58.70
2018-06-22T18:55:23.694Z,58.90
2018-06-22T18:57:57.909Z,59.30
2018-06-22T19:00:31.876Z,59.80
2018-06-22T19:03:06.021Z,59.70
2018-06-22T19:05:34.936Z,59.90
2018-06-22T19:08:03.809Z,60.60
2018-06-22T19:10:32.764Z,60.80
2018-06-22T19:13:01.736Z,61.00
2018-06-22T19:15:30.595Z,61.80
2018-06-22T19:17:59.382Z,61.40
2018-06-22T19:20:28.574Z,61.70
2018-06-22T19:22:57.457Z,61.60
2018-06-22T19:25:26.366Z,62.70
2018-06-22T19:27:55.129Z,61.70
2018-06-22T19:30:23.876Z,62.50
2018-06-22T19:32:52.732Z,63.00
2018-06-22T19:35:21.648Z,63.00
2018-06-22T19:37:50.603Z,63.30
2018-06-22T19:40:19.473Z,63.20
2018-06-22T19:42:48.872Z,63.20
2018-06-22T19:45:23.074Z,63.20
2018-06-22T19:47:57.233Z,63.80
2018-06-22T19:53:05.171Z,63.90
2018-06-22T19:55:34.034Z,63.60
2018-06-22T19:58:02.901Z,63.70
2018-06-22T20:00:31.689Z,63.70
2018-06-22T20:03:00.702Z,64.30
2018-06-22T20:05:29.540Z,64.70
2018-06-22T20:07:58.368Z,64.60
2018-06-22T20:10:27.386Z,65.40
2018-06-22T20:12:56.482Z,64.70
2018-06-22T20:15:25.942Z,65.40
2018-06-22T20:17:55.767Z,65.20
2018-06-22T20:20:25.074Z,64.90
2018-06-22T20:22:53.990Z,65.00
2018-06-22T20:25:28.142Z,64.80
2018-06-22T20:27:56.962Z,65.60
2018-06-22T20:30:26.008Z,65.10
2018-06-22T20:32:54.865Z,66.00
2018-06-22T20:35:28.794Z,65.10
2018-06-22T20:39:02.467Z,65.20
2018-06-22T20:41:36.551Z,65.60
2018-06-22T20:44:10.754Z,66.60
2018-06-22T20:46:45.011Z,65.90
2018-06-22T20:49:19.005Z,65.70
2018-06-22T20:51:47.846Z,66.30
2018-06-22T20:54:16.652Z,66.50
2018-06-22T20:56:45.483Z,66.60
2018-06-22T20:59:14.290Z,66.80
2018-06-22T21:01:43.090Z,67.20
2018-06-22T21:04:11.940Z,66.80
2018-06-22T21:06:40.844Z,67.20
2018-06-22T21:09:10.559Z,67.40
2018-06-22T21:11:39.516Z,67.20
2018-06-22T21:14:08.512Z,67.70
2018-06-22T21:16:37.886Z,67.20
2018-06-22T21:19:06.708Z,67.60
2018-06-22T21:21:40.983Z,67.60
2018-06-22T21:24:10.055Z,67.40
2018-06-22T21:26:38.934Z,68.10
2018-06-22T21:29:13.190Z,67.70
2018-06-22T21:31:47.276Z,67.40
2018-06-22T21:34:21.421Z,68.10
2018-06-22T21:36:55.548Z,68.00
2018-06-22T21:39:24.420Z,68.10
2018-06-22T21:41:53.224Z,68.10
2018-06-22T21:44:22.037Z,68.10
2018-06-22T21:46:50.874Z,67.80
2018-06-22T21:49:19.857Z,67.40
2018-06-22T21:51:48.792Z,67.60
2018-06-22T21:54:17.606Z,67.60
2018-06-22T21:56:46.478Z,67.90
2018-06-22T21:59:15.290Z,68.20
2018-06-22T22:01:45.240Z,67.90
2018-06-22T22:04:14.025Z,68.20
2018-06-22T22:06:42.934Z,68.10
2018-06-22T22:09:11.830Z,67.80
2018-06-22T22:11:45.976Z,68.10
2018-06-22T22:14:14.722Z,68.70
2018-06-22T22:16:43.619Z,68.10
2018-06-22T22:19:12.444Z,68.70
2018-06-22T22:21:41.498Z,68.10
2018-06-22T22:24:10.392Z,69.10
2018-06-22T22:26:39.312Z,68.10
2018-06-22T22:29:10.325Z,68.80
2018-06-22T22:31:39.392Z,68.60
2018-06-22T22:34:08.246Z,68.50
2018-06-22T22:36:37.107Z,68.50
2018-06-22T22:39:07.446Z,68.70
2018-06-22T22:41:36.829Z,68.80
2018-06-22T22:44:05.719Z,68.80
2018-06-22T22:46:34.733Z,68.90
2018-06-22T22:49:03.974Z,69.10
2018-06-22T22:51:32.884Z,68.90
2018-06-22T22:54:01.931Z,68.90
2018-06-22T22:56:30.813Z,69.10
2018-06-22T22:58:59.704Z,68.90
2018-06-22T23:01:28.538Z,69.20
2018-06-22T23:03:57.474Z,69.00
2018-06-22T23:06:26.372Z,69.20
2018-06-22T23:08:55.194Z,69.50
2018-06-22T23:11:24.150Z,69.40
2018-06-22T23:13:52.953Z,69.70
2018-06-22T23:16:21.766Z,70.30
2018-06-22T23:18:50.646Z,70.20
2018-06-22T23:21:19.427Z,70.30
2018-06-22T23:23:48.190Z,70.20
2018-06-22T23:26:17.089Z,70.70
2018-06-22T23:28:45.830Z,70.30
2018-06-22T23:31:14.768Z,70.70
2018-06-22T23:33:43.670Z,70.70
2018-06-22T23:36:12.451Z,71.20
2018-06-22T23:38:41.396Z,71.70
2018-06-22T23:41:10.309Z,71.70
2018-06-22T23:43:39.146Z,72.60
2018-06-22T23:46:08.187Z,72.20
2018-06-22T23:48:37.017Z,72.90
2018-06-22T23:51:06.073Z,72.70
2018-06-22T23:53:34.882Z,73.20
2018-06-22T23:56:03.780Z,73.40
2018-06-22T23:58:32.600Z,73.70
